sensor_id;sensor_type;location;lat;lon;timestamp;temperature;humidity
5027;DHT22;2532;52.480;13.354;2023-12-20T00:02:18;8.80;99.90
5027;DHT22;2532;52.480;13.354;2023-12-20T00:04:45;8.90;99.90
5027;DHT22;2532;52.480;13.354;2023-12-20T00:07:13;8.90;99.90
5027;DHT22;2532;52.480;13.354;2023-12-20T00:09:40;8.80;99.90
5027;DHT22;2532;52.480;13.354;2023-12-20T00:12:07;8.90;99.90
5027;DHT22;2532;52.480;13.354;2023-12-20T00:14:34;8.90;99.90
5027;DHT22;2532;52.480;13.354;2023-12-20T00:17:01;8.90;99.90
5027;DHT22;2532;52.480;13.354;2023-12-20T00:19:28;8.90;99.90
5027;DHT22;2532;52.480;13.354;2023-12-20T00:21:55;8.90;99.90
5027;DHT22;2532;52.480;13.354;2023-12-20T00:24:23;8.80;99.90
5027;DHT22;2532;52.480;13.354;2023-12-20T00:26:50;8.80;99.90
5027;DHT22;2532;52.480;13.354;2023-12-20T00:29:17;8.90;99.90
5027;DHT22;2532;52.480;13.354;2023-12-20T00:31:44;8.80;99.90
5027;DHT22;2532;52.480;13.354;2023-12-20T00:34:11;8.90;99.90
5027;DHT22;2532;52.480;13.354;2023-12-20T00:36:38;8.90;99.90
5027;DHT22;2532;52.480;13.354;2023-12-20T00:39:04;8.90;99.90
5027;DHT22;2532;52.480;13.354;2023-12-20T00:41:33;8.90;99.90
5027;DHT22;2532;52.480;13.354;2023-12-20T00:44:00;8.90;99.90
5027;DHT22;2532;52.480;13.354;2023-12-20T00:46:28;8.80;99.90
5027;DHT22;2532;52.480;13.354;2023-12-20T00:48:55;8.80;99.90
5027;DHT22;2532;52.480;13.354;2023-12-20T00:51:22;8.80;99.90
5027;DHT22;2532;52.480;13.354;2023-12-20T00:53:50;8.80;99.90
5027;DHT22;2532;52.480;13.354;2023-12-20T00:56:20;8.80;99.90
5027;DHT22;2532;52.480;13.354;2023-12-20T00:58:48;8.80;99.90
5027;DHT22;2532;52.480;13.354;2023-12-20T01:01:15;8.80;99.90
5027;DHT22;2532;52.480;13.354;2023-12-20T01:03:45;8.80;99.90
5027;DHT22;2532;52.480;13.354;2023-12-20T01:06:12;8.80;99.90
5027;DHT22;2532;52.480;13.354;2023-12-20T01:08:39;8.80;99.90
5027;DHT22;2532;52.480;13.354;2023-12-20T01:11:06;8.80;99.90
5027;DHT22;2532;52.480;13.354;2023-12-20T01:13:33;8.80;99.90
5027;DHT22;2532;52.480;13.354;2023-12-20T01:16:02;8.90;99.90
5027;DHT22;2532;52.480;13.354;2023-12-20T01:18:29;8.80;99.90
5027;DHT22;2532;52.480;13.354;2023-12-20T01:20:56;8.80;99.90
5027;DHT22;2532;52.480;13.354;2023-12-20T01:23:27;8.80;99.90
5027;DHT22;2532;52.480;13.354;2023-12-20T01:25:54;8.90;99.90
5027;DHT22;2532;52.480;13.354;2023-12-20T01:28:21;8.80;99.90
5027;DHT22;2532;52.480;13.354;2023-12-20T01:30:48;8.90;99.90
5027;DHT22;2532;52.480;13.354;2023-12-20T01:33:16;8.90;99.90
5027;DHT22;2532;52.480;13.354;2023-12-20T01:35:43;8.90;99.90
5027;DHT22;2532;52.480;13.354;2023-12-20T01:38:10;8.90;99.90
5027;DHT22;2532;52.480;13.354;2023-12-20T01:40:40;8.90;99.90
5027;DHT22;2532;52.480;13.354;2023-12-20T01:43:08;8.90;99.90
5027;DHT22;2532;52.480;13.354;2023-12-20T01:45:37;8.90;99.90
5027;DHT22;2532;52.480;13.354;2023-12-20T01:48:05;8.90;99.90
5027;DHT22;2532;52.480;13.354;2023-12-20T01:50:36;9.00;99.90
5027;DHT22;2532;52.480;13.354;2023-12-20T01:53:04;8.90;99.90
5027;DHT22;2532;52.480;13.354;2023-12-20T01:55:33;8.90;99.90
5027;DHT22;2532;52.480;13.354;2023-12-20T01:58:01;8.90;99.90
5027;DHT22;2532;52.480;13.354;2023-12-20T02:00:29;9.00;99.90
5027;DHT22;2532;52.480;13.354;2023-12-20T02:03:00;8.90;99.90
5027;DHT22;2532;52.480;13.354;2023-12-20T02:05:28;8.90;99.90
5027;DHT22;2532;52.480;13.354;2023-12-20T02:07:57;8.90;99.90
5027;DHT22;2532;52.480;13.354;2023-12-20T02:10:24;8.90;99.90
5027;DHT22;2532;52.480;13.354;2023-12-20T02:12:51;8.90;99.90
5027;DHT22;2532;52.480;13.354;2023-12-20T02:15:18;8.80;99.90
5027;DHT22;2532;52.480;13.354;2023-12-20T02:17:46;8.90;99.90
5027;DHT22;2532;52.480;13.354;2023-12-20T02:20:14;8.90;99.90
5027;DHT22;2532;52.480;13.354;2023-12-20T02:22:42;8.90;99.90
5027;DHT22;2532;52.480;13.354;2023-12-20T02:25:09;8.80;99.90
5027;DHT22;2532;52.480;13.354;2023-12-20T02:27:36;8.90;99.90
5027;DHT22;2532;52.480;13.354;2023-12-20T02:30:04;8.80;99.90
5027;DHT22;2532;52.480;13.354;2023-12-20T02:32:31;8.90;99.90
5027;DHT22;2532;52.480;13.354;2023-12-20T02:34:58;8.80;99.90
5027;DHT22;2532;52.480;13.354;2023-12-20T02:37:25;8.90;99.90
5027;DHT22;2532;52.480;13.354;2023-12-20T02:39:53;8.80;99.90
5027;DHT22;2532;52.480;13.354;2023-12-20T02:42:20;8.80;99.90
5027;DHT22;2532;52.480;13.354;2023-12-20T02:44:47;8.80;99.90
5027;DHT22;2532;52.480;13.354;2023-12-20T02:47:14;8.80;99.90
5027;DHT22;2532;52.480;13.354;2023-12-20T02:49:41;8.80;99.90
5027;DHT22;2532;52.480;13.354;2023-12-20T02:52:08;8.90;99.90
5027;DHT22;2532;52.480;13.354;2023-12-20T02:54:35;8.90;99.90
5027;DHT22;2532;52.480;13.354;2023-12-20T02:57:03;8.80;99.90
5027;DHT22;2532;52.480;13.354;2023-12-20T02:59:30;8.80;99.90
5027;DHT22;2532;52.480;13.354;2023-12-20T03:01:57;8.80;99.90
5027;DHT22;2532;52.480;13.354;2023-12-20T03:04:24;8.80;99.90
5027;DHT22;2532;52.480;13.354;2023-12-20T03:06:51;8.70;99.90
5027;DHT22;2532;52.480;13.354;2023-12-20T03:09:18;8.70;99.90
5027;DHT22;2532;52.480;13.354;2023-12-20T03:11:45;8.70;99.90
5027;DHT22;2532;52.480;13.354;2023-12-20T03:14:13;8.70;99.90
5027;DHT22;2532;52.480;13.354;2023-12-20T03:16:40;8.70;99.90
5027;DHT22;2532;52.480;13.354;2023-12-20T03:19:07;8.70;99.90
5027;DHT22;2532;52.480;13.354;2023-12-20T03:21:34;8.70;99.90
5027;DHT22;2532;52.480;13.354;2023-12-20T03:24:03;8.70;99.90
5027;DHT22;2532;52.480;13.354;2023-12-20T03:26:30;8.70;99.90
5027;DHT22;2532;52.480;13.354;2023-12-20T03:28:57;8.70;99.90
5027;DHT22;2532;52.480;13.354;2023-12-20T03:31:25;8.70;99.90
5027;DHT22;2532;52.480;13.354;2023-12-20T03:33:52;8.70;99.90
5027;DHT22;2532;52.480;13.354;2023-12-20T03:36:19;8.70;99.90
5027;DHT22;2532;52.480;13.354;2023-12-20T03:38:46;8.70;99.90
5027;DHT22;2532;52.480;13.354;2023-12-20T03:41:13;8.70;99.90
5027;DHT22;2532;52.480;13.354;2023-12-20T03:43:40;8.70;99.90
5027;DHT22;2532;52.480;13.354;2023-12-20T03:46:08;8.70;99.90
5027;DHT22;2532;52.480;13.354;2023-12-20T03:48:36;8.80;99.90
5027;DHT22;2532;52.480;13.354;2023-12-20T03:51:03;8.80;99.90
5027;DHT22;2532;52.480;13.354;2023-12-20T03:53:30;8.80;99.90
5027;DHT22;2532;52.480;13.354;2023-12-20T03:55:57;8.70;99.90
5027;DHT22;2532;52.480;13.354;2023-12-20T03:58:24;8.80;99.90
5027;DHT22;2532;52.480;13.354;2023-12-20T04:00:54;8.80;99.90
5027;DHT22;2532;52.480;13.354;2023-12-20T04:03:21;8.80;99.90
5027;DHT22;2532;52.480;13.354;2023-12-20T04:05:49;8.80;99.90
5027;DHT22;2532;52.480;13.354;2023-12-20T04:08:16;8.70;99.90
5027;DHT22;2532;52.480;13.354;2023-12-20T04:10:43;8.70;99.90
5027;DHT22;2532;52.480;13.354;2023-12-20T04:13:10;8.70;99.90
5027;DHT22;2532;52.480;13.354;2023-12-20T04:15:37;8.70;99.90
5027;DHT22;2532;52.480;13.354;2023-12-20T04:18:04;8.70;99.90
5027;DHT22;2532;52.480;13.354;2023-12-20T04:20:31;8.60;99.90
5027;DHT22;2532;52.480;13.354;2023-12-20T04:23:00;8.60;99.90
5027;DHT22;2532;52.480;13.354;2023-12-20T04:25:27;8.60;99.90
5027;DHT22;2532;52.480;13.354;2023-12-20T04:27:54;8.60;99.90
5027;DHT22;2532;52.480;13.354;2023-12-20T04:30:21;8.60;99.90
5027;DHT22;2532;52.480;13.354;2023-12-20T04:32:48;8.60;99.90
5027;DHT22;2532;52.480;13.354;2023-12-20T04:35:15;8.50;99.90
5027;DHT22;2532;52.480;13.354;2023-12-20T04:37:42;8.50;99.90
5027;DHT22;2532;52.480;13.354;2023-12-20T04:40:10;8.50;99.90
5027;DHT22;2532;52.480;13.354;2023-12-20T04:42:37;8.40;99.90
5027;DHT22;2532;52.480;13.354;2023-12-20T04:45:05;8.40;99.90
5027;DHT22;2532;52.480;13.354;2023-12-20T04:47:32;8.40;99.90
5027;DHT22;2532;52.480;13.354;2023-12-20T04:49:59;8.30;99.90
5027;DHT22;2532;52.480;13.354;2023-12-20T04:52:26;8.40;99.90
5027;DHT22;2532;52.480;13.354;2023-12-20T04:54:57;8.30;99.90
5027;DHT22;2532;52.480;13.354;2023-12-20T04:57:26;8.30;99.90
5027;DHT22;2532;52.480;13.354;2023-12-20T04:59:53;8.30;99.90
5027;DHT22;2532;52.480;13.354;2023-12-20T05:02:20;8.20;99.90
5027;DHT22;2532;52.480;13.354;2023-12-20T05:04:47;8.20;99.90
5027;DHT22;2532;52.480;13.354;2023-12-20T05:07:15;8.20;99.90
5027;DHT22;2532;52.480;13.354;2023-12-20T05:09:42;8.20;99.90
5027;DHT22;2532;52.480;13.354;2023-12-20T05:12:09;8.20;99.90
5027;DHT22;2532;52.480;13.354;2023-12-20T05:14:37;8.20;99.90
5027;DHT22;2532;52.480;13.354;2023-12-20T05:17:04;8.10;99.90
5027;DHT22;2532;52.480;13.354;2023-12-20T05:19:32;8.10;99.90
5027;DHT22;2532;52.480;13.354;2023-12-20T05:22:00;8.10;99.90
5027;DHT22;2532;52.480;13.354;2023-12-20T05:24:27;8.10;99.90
5027;DHT22;2532;52.480;13.354;2023-12-20T05:26:54;8.00;99.90
5027;DHT22;2532;52.480;13.354;2023-12-20T05:29:22;8.10;99.90
5027;DHT22;2532;52.480;13.354;2023-12-20T05:31:53;8.00;99.90
5027;DHT22;2532;52.480;13.354;2023-12-20T05:34:20;8.00;99.90
5027;DHT22;2532;52.480;13.354;2023-12-20T05:36:47;8.00;99.90
5027;DHT22;2532;52.480;13.354;2023-12-20T05:39:14;7.90;99.90
5027;DHT22;2532;52.480;13.354;2023-12-20T05:41:41;8.00;99.90
5027;DHT22;2532;52.480;13.354;2023-12-20T05:44:08;7.90;99.90
5027;DHT22;2532;52.480;13.354;2023-12-20T05:46:36;7.90;99.90
5027;DHT22;2532;52.480;13.354;2023-12-20T05:49:04;7.90;99.90
5027;DHT22;2532;52.480;13.354;2023-12-20T05:51:32;7.80;99.90
5027;DHT22;2532;52.480;13.354;2023-12-20T05:53:59;7.80;99.90
5027;DHT22;2532;52.480;13.354;2023-12-20T05:56:26;7.70;99.90
5027;DHT22;2532;52.480;13.354;2023-12-20T05:58:53;7.70;99.90
5027;DHT22;2532;52.480;13.354;2023-12-20T06:01:20;7.70;99.90
5027;DHT22;2532;52.480;13.354;2023-12-20T06:03:47;7.60;99.90
5027;DHT22;2532;52.480;13.354;2023-12-20T06:06:15;7.60;99.90
5027;DHT22;2532;52.480;13.354;2023-12-20T06:08:43;7.60;99.90
5027;DHT22;2532;52.480;13.354;2023-12-20T06:11:10;7.60;99.90
5027;DHT22;2532;52.480;13.354;2023-12-20T06:13:37;7.60;99.90
5027;DHT22;2532;52.480;13.354;2023-12-20T06:16:05;7.60;99.90
5027;DHT22;2532;52.480;13.354;2023-12-20T06:18:33;7.50;99.90
5027;DHT22;2532;52.480;13.354;2023-12-20T06:21:01;7.50;99.90
5027;DHT22;2532;52.480;13.354;2023-12-20T06:23:30;7.50;99.90
5027;DHT22;2532;52.480;13.354;2023-12-20T06:25:57;7.50;99.90
5027;DHT22;2532;52.480;13.354;2023-12-20T06:28:24;7.50;99.90
5027;DHT22;2532;52.480;13.354;2023-12-20T06:30:51;7.50;99.90
5027;DHT22;2532;52.480;13.354;2023-12-20T06:33:20;7.40;99.90
5027;DHT22;2532;52.480;13.354;2023-12-20T06:35:50;7.40;99.90
5027;DHT22;2532;52.480;13.354;2023-12-20T06:38:18;7.50;99.90
5027;DHT22;2532;52.480;13.354;2023-12-20T06:40:47;7.50;99.90
5027;DHT22;2532;52.480;13.354;2023-12-20T06:43:18;7.40;99.90
5027;DHT22;2532;52.480;13.354;2023-12-20T06:45:47;7.40;99.90
5027;DHT22;2532;52.480;13.354;2023-12-20T06:48:14;7.50;99.90
5027;DHT22;2532;52.480;13.354;2023-12-20T06:50:41;7.40;99.90
5027;DHT22;2532;52.480;13.354;2023-12-20T06:53:08;7.40;99.90
5027;DHT22;2532;52.480;13.354;2023-12-20T06:55:37;7.40;99.90
5027;DHT22;2532;52.480;13.354;2023-12-20T06:58:06;7.40;99.90
5027;DHT22;2532;52.480;13.354;2023-12-20T07:00:33;7.30;99.90
5027;DHT22;2532;52.480;13.354;2023-12-20T07:03:01;7.30;99.90
5027;DHT22;2532;52.480;13.354;2023-12-20T07:05:31;7.30;99.90
5027;DHT22;2532;52.480;13.354;2023-12-20T07:07:58;7.30;99.90
5027;DHT22;2532;52.480;13.354;2023-12-20T07:10:25;7.30;99.90
5027;DHT22;2532;52.480;13.354;2023-12-20T07:12:52;7.30;99.90
5027;DHT22;2532;52.480;13.354;2023-12-20T07:15:22;7.30;99.90
5027;DHT22;2532;52.480;13.354;2023-12-20T07:17:49;7.30;99.90
5027;DHT22;2532;52.480;13.354;2023-12-20T07:20:16;7.30;99.90
5027;DHT22;2532;52.480;13.354;2023-12-20T07:22:44;7.30;99.90
5027;DHT22;2532;52.480;13.354;2023-12-20T07:25:14;7.40;99.90
5027;DHT22;2532;52.480;13.354;2023-12-20T07:27:41;7.40;99.90
5027;DHT22;2532;52.480;13.354;2023-12-20T07:30:09;7.30;99.90
5027;DHT22;2532;52.480;13.354;2023-12-20T07:32:40;7.30;99.90
5027;DHT22;2532;52.480;13.354;2023-12-20T07:35:08;7.40;99.90
5027;DHT22;2532;52.480;13.354;2023-12-20T07:37:35;7.40;99.90
5027;DHT22;2532;52.480;13.354;2023-12-20T07:40:02;7.40;99.90
5027;DHT22;2532;52.480;13.354;2023-12-20T07:42:29;7.40;99.90
5027;DHT22;2532;52.480;13.354;2023-12-20T07:44:56;7.40;99.90
5027;DHT22;2532;52.480;13.354;2023-12-20T07:47:23;7.40;99.90
5027;DHT22;2532;52.480;13.354;2023-12-20T07:49:52;7.40;99.90
5027;DHT22;2532;52.480;13.354;2023-12-20T07:52:19;7.40;99.90
5027;DHT22;2532;52.480;13.354;2023-12-20T07:54:47;7.50;99.90
5027;DHT22;2532;52.480;13.354;2023-12-20T07:57:16;7.50;99.90
5027;DHT22;2532;52.480;13.354;2023-12-20T07:59:47;7.50;99.90
5027;DHT22;2532;52.480;13.354;2023-12-20T08:02:14;7.50;99.90
5027;DHT22;2532;52.480;13.354;2023-12-20T08:04:41;7.50;99.90
5027;DHT22;2532;52.480;13.354;2023-12-20T08:07:10;7.50;99.90
5027;DHT22;2532;52.480;13.354;2023-12-20T08:09:37;7.50;99.90
5027;DHT22;2532;52.480;13.354;2023-12-20T08:12:06;7.50;99.90
5027;DHT22;2532;52.480;13.354;2023-12-20T08:14:34;7.50;99.90
5027;DHT22;2532;52.480;13.354;2023-12-20T08:17:01;7.50;99.90
5027;DHT22;2532;52.480;13.354;2023-12-20T08:19:28;7.50;99.90
5027;DHT22;2532;52.480;13.354;2023-12-20T08:21:55;7.50;99.90
5027;DHT22;2532;52.480;13.354;2023-12-20T08:24:24;7.50;99.90
5027;DHT22;2532;52.480;13.354;2023-12-20T08:26:51;7.50;99.90
5027;DHT22;2532;52.480;13.354;2023-12-20T08:29:18;7.60;99.90
5027;DHT22;2532;52.480;13.354;2023-12-20T08:31:46;7.50;99.90
5027;DHT22;2532;52.480;13.354;2023-12-20T08:34:16;7.50;99.90
5027;DHT22;2532;52.480;13.354;2023-12-20T08:36:43;7.50;99.90
5027;DHT22;2532;52.480;13.354;2023-12-20T08:39:10;7.60;99.90
5027;DHT22;2532;52.480;13.354;2023-12-20T08:41:39;7.60;99.90
5027;DHT22;2532;52.480;13.354;2023-12-20T08:44:06;7.60;99.90
5027;DHT22;2532;52.480;13.354;2023-12-20T08:46:33;7.60;99.90
5027;DHT22;2532;52.480;13.354;2023-12-20T08:49:01;7.70;99.90
5027;DHT22;2532;52.480;13.354;2023-12-20T08:51:28;7.70;99.90
5027;DHT22;2532;52.480;13.354;2023-12-20T08:53:55;7.70;99.90
5027;DHT22;2532;52.480;13.354;2023-12-20T08:56:22;7.80;99.90
5027;DHT22;2532;52.480;13.354;2023-12-20T08:58:50;7.80;99.90
5027;DHT22;2532;52.480;13.354;2023-12-20T09:01:17;7.70;99.90
5027;DHT22;2532;52.480;13.354;2023-12-20T09:03:45;7.80;99.90
5027;DHT22;2532;52.480;13.354;2023-12-20T09:06:15;7.80;99.90
5027;DHT22;2532;52.480;13.354;2023-12-20T09:08:44;7.80;99.90
5027;DHT22;2532;52.480;13.354;2023-12-20T09:11:11;7.80;99.90
5027;DHT22;2532;52.480;13.354;2023-12-20T09:13:38;7.80;99.90
5027;DHT22;2532;52.480;13.354;2023-12-20T09:16:07;7.90;99.90
5027;DHT22;2532;52.480;13.354;2023-12-20T09:18:34;7.90;99.90
5027;DHT22;2532;52.480;13.354;2023-12-20T09:21:01;7.90;99.90
5027;DHT22;2532;52.480;13.354;2023-12-20T09:23:30;8.00;99.90
5027;DHT22;2532;52.480;13.354;2023-12-20T09:26:02;8.00;99.90
5027;DHT22;2532;52.480;13.354;2023-12-20T09:28:30;7.90;99.90
5027;DHT22;2532;52.480;13.354;2023-12-20T09:31:03;7.90;99.90
5027;DHT22;2532;52.480;13.354;2023-12-20T09:33:31;8.00;99.90
5027;DHT22;2532;52.480;13.354;2023-12-20T09:35:58;8.00;99.90
5027;DHT22;2532;52.480;13.354;2023-12-20T09:38:25;8.00;99.90
5027;DHT22;2532;52.480;13.354;2023-12-20T09:40:52;8.00;99.90
5027;DHT22;2532;52.480;13.354;2023-12-20T09:43:20;8.00;99.90
5027;DHT22;2532;52.480;13.354;2023-12-20T09:45:53;8.10;99.90
5027;DHT22;2532;52.480;13.354;2023-12-20T09:48:20;8.10;99.90
5027;DHT22;2532;52.480;13.354;2023-12-20T09:50:51;8.10;99.90
5027;DHT22;2532;52.480;13.354;2023-12-20T09:53:21;8.10;99.90
5027;DHT22;2532;52.480;13.354;2023-12-20T09:55:56;8.10;99.90
5027;DHT22;2532;52.480;13.354;2023-12-20T09:58:24;8.10;99.90
5027;DHT22;2532;52.480;13.354;2023-12-20T10:00:53;8.20;99.90
5027;DHT22;2532;52.480;13.354;2023-12-20T10:03:24;8.20;99.90
5027;DHT22;2532;52.480;13.354;2023-12-20T10:05:54;8.20;99.90
5027;DHT22;2532;52.480;13.354;2023-12-20T10:08:24;8.20;99.90
5027;DHT22;2532;52.480;13.354;2023-12-20T10:10:51;8.30;99.90
5027;DHT22;2532;52.480;13.354;2023-12-20T10:13:18;8.30;99.90
5027;DHT22;2532;52.480;13.354;2023-12-20T10:15:45;8.30;99.90
5027;DHT22;2532;52.480;13.354;2023-12-20T10:18:12;8.30;99.90
5027;DHT22;2532;52.480;13.354;2023-12-20T10:20:42;8.30;99.90
5027;DHT22;2532;52.480;13.354;2023-12-20T10:23:11;8.30;99.90
5027;DHT22;2532;52.480;13.354;2023-12-20T10:25:56;8.30;99.90
5027;DHT22;2532;52.480;13.354;2023-12-20T10:28:23;8.30;99.90
5027;DHT22;2532;52.480;13.354;2023-12-20T10:30:54;8.30;99.90
5027;DHT22;2532;52.480;13.354;2023-12-20T10:33:24;8.30;99.90
5027;DHT22;2532;52.480;13.354;2023-12-20T10:35:52;8.30;99.90
5027;DHT22;2532;52.480;13.354;2023-12-20T10:38:21;8.40;99.90
5027;DHT22;2532;52.480;13.354;2023-12-20T10:40:48;8.40;99.90
5027;DHT22;2532;52.480;13.354;2023-12-20T10:43:15;8.40;99.90
5027;DHT22;2532;52.480;13.354;2023-12-20T10:45:42;8.50;99.90
5027;DHT22;2532;52.480;13.354;2023-12-20T10:48:10;8.40;99.90
5027;DHT22;2532;52.480;13.354;2023-12-20T10:50:38;8.50;99.90
5027;DHT22;2532;52.480;13.354;2023-12-20T10:53:06;8.50;99.90
5027;DHT22;2532;52.480;13.354;2023-12-20T10:55:39;8.50;99.90
5027;DHT22;2532;52.480;13.354;2023-12-20T10:58:07;8.50;99.90
5027;DHT22;2532;52.480;13.354;2023-12-20T11:00:36;8.50;99.90
5027;DHT22;2532;52.480;13.354;2023-12-20T11:03:06;8.50;99.90
5027;DHT22;2532;52.480;13.354;2023-12-20T11:05:40;8.60;99.90
5027;DHT22;2532;52.480;13.354;2023-12-20T11:08:12;8.60;99.90
5027;DHT22;2532;52.480;13.354;2023-12-20T11:10:44;8.60;99.90
5027;DHT22;2532;52.480;13.354;2023-12-20T11:13:20;8.60;99.90
5027;DHT22;2532;52.480;13.354;2023-12-20T11:15:47;8.60;99.90
5027;DHT22;2532;52.480;13.354;2023-12-20T11:18:15;8.60;99.90
5027;DHT22;2532;52.480;13.354;2023-12-20T11:20:42;8.60;99.90
5027;DHT22;2532;52.480;13.354;2023-12-20T11:23:09;8.60;99.90
5027;DHT22;2532;52.480;13.354;2023-12-20T11:25:52;8.70;99.90
5027;DHT22;2532;52.480;13.354;2023-12-20T11:28:21;8.70;99.90
5027;DHT22;2532;52.480;13.354;2023-12-20T11:30:50;8.70;99.90
5027;DHT22;2532;52.480;13.354;2023-12-20T11:33:21;8.70;99.90
5027;DHT22;2532;52.480;13.354;2023-12-20T11:35:48;8.80;99.90
5027;DHT22;2532;52.480;13.354;2023-12-20T11:38:15;8.80;99.90
5027;DHT22;2532;52.480;13.354;2023-12-20T11:40:43;8.80;99.90
5027;DHT22;2532;52.480;13.354;2023-12-20T11:43:12;8.80;99.90
5027;DHT22;2532;52.480;13.354;2023-12-20T11:45:55;8.70;99.90
5027;DHT22;2532;52.480;13.354;2023-12-20T11:48:28;8.70;99.90
5027;DHT22;2532;52.480;13.354;2023-12-20T11:50:56;8.70;99.90
5027;DHT22;2532;52.480;13.354;2023-12-20T11:53:23;8.70;99.90
5027;DHT22;2532;52.480;13.354;2023-12-20T11:55:50;8.70;99.90
5027;DHT22;2532;52.480;13.354;2023-12-20T11:58:19;8.70;99.90
5027;DHT22;2532;52.480;13.354;2023-12-20T12:00:45;8.70;99.90
5027;DHT22;2532;52.480;13.354;2023-12-20T12:03:15;8.70;99.90
5027;DHT22;2532;52.480;13.354;2023-12-20T12:05:42;8.70;99.90
5027;DHT22;2532;52.480;13.354;2023-12-20T12:08:09;8.70;99.90
5027;DHT22;2532;52.480;13.354;2023-12-20T12:10:36;8.70;99.90
5027;DHT22;2532;52.480;13.354;2023-12-20T12:13:03;8.70;99.90
5027;DHT22;2532;52.480;13.354;2023-12-20T12:15:31;8.70;99.90
5027;DHT22;2532;52.480;13.354;2023-12-20T12:17:58;8.70;99.90
5027;DHT22;2532;52.480;13.354;2023-12-20T12:20:25;8.70;99.90
5027;DHT22;2532;52.480;13.354;2023-12-20T12:22:59;8.70;99.90
5027;DHT22;2532;52.480;13.354;2023-12-20T12:25:26;8.70;99.90
5027;DHT22;2532;52.480;13.354;2023-12-20T12:27:53;8.80;99.90
5027;DHT22;2532;52.480;13.354;2023-12-20T12:30:20;8.70;99.90
5027;DHT22;2532;52.480;13.354;2023-12-20T12:32:49;8.70;99.90
5027;DHT22;2532;52.480;13.354;2023-12-20T12:35:17;8.70;99.90
5027;DHT22;2532;52.480;13.354;2023-12-20T12:37:44;8.70;99.90
5027;DHT22;2532;52.480;13.354;2023-12-20T12:40:25;8.70;99.90
5027;DHT22;2532;52.480;13.354;2023-12-20T12:42:52;8.60;99.90
5027;DHT22;2532;52.480;13.354;2023-12-20T12:45:19;8.60;99.90
5027;DHT22;2532;52.480;13.354;2023-12-20T12:47:46;8.60;99.90
5027;DHT22;2532;52.480;13.354;2023-12-20T12:50:15;8.60;99.90
5027;DHT22;2532;52.480;13.354;2023-12-20T12:52:42;8.50;99.90
5027;DHT22;2532;52.480;13.354;2023-12-20T12:55:09;8.50;99.90
5027;DHT22;2532;52.480;13.354;2023-12-20T12:57:36;8.40;99.90
5027;DHT22;2532;52.480;13.354;2023-12-20T13:00:04;8.50;99.90
5027;DHT22;2532;52.480;13.354;2023-12-20T13:02:33;8.40;99.90
5027;DHT22;2532;52.480;13.354;2023-12-20T13:05:00;8.40;99.90
5027;DHT22;2532;52.480;13.354;2023-12-20T13:07:29;8.40;99.90
5027;DHT22;2532;52.480;13.354;2023-12-20T13:09:56;8.30;99.90
5027;DHT22;2532;52.480;13.354;2023-12-20T13:12:23;8.30;99.90
5027;DHT22;2532;52.480;13.354;2023-12-20T13:14:50;8.30;99.90
5027;DHT22;2532;52.480;13.354;2023-12-20T13:17:17;8.30;99.90
5027;DHT22;2532;52.480;13.354;2023-12-20T13:19:44;8.30;99.90
5027;DHT22;2532;52.480;13.354;2023-12-20T13:22:11;8.30;99.90
5027;DHT22;2532;52.480;13.354;2023-12-20T13:24:39;8.30;99.90
5027;DHT22;2532;52.480;13.354;2023-12-20T13:27:06;8.20;99.90
5027;DHT22;2532;52.480;13.354;2023-12-20T13:29:33;8.20;99.90
5027;DHT22;2532;52.480;13.354;2023-12-20T13:32:00;8.00;99.90
5027;DHT22;2532;52.480;13.354;2023-12-20T13:34:29;7.80;99.90
5027;DHT22;2532;52.480;13.354;2023-12-20T13:36:56;7.50;99.90
5027;DHT22;2532;52.480;13.354;2023-12-20T13:39:23;7.30;99.90
5027;DHT22;2532;52.480;13.354;2023-12-20T13:41:51;7.20;99.90
5027;DHT22;2532;52.480;13.354;2023-12-20T13:44:18;7.10;99.90
5027;DHT22;2532;52.480;13.354;2023-12-20T13:46:45;7.00;99.90
5027;DHT22;2532;52.480;13.354;2023-12-20T13:49:15;6.90;99.90
5027;DHT22;2532;52.480;13.354;2023-12-20T13:51:43;6.90;99.90
5027;DHT22;2532;52.480;13.354;2023-12-20T13:54:10;6.80;99.90
5027;DHT22;2532;52.480;13.354;2023-12-20T13:56:37;6.80;99.90
5027;DHT22;2532;52.480;13.354;2023-12-20T13:59:05;6.80;99.90
5027;DHT22;2532;52.480;13.354;2023-12-20T14:01:32;6.80;99.90
5027;DHT22;2532;52.480;13.354;2023-12-20T14:04:00;6.80;99.90
5027;DHT22;2532;52.480;13.354;2023-12-20T14:06:27;6.90;99.90
5027;DHT22;2532;52.480;13.354;2023-12-20T14:08:55;6.80;99.90
5027;DHT22;2532;52.480;13.354;2023-12-20T14:11:22;6.90;99.90
5027;DHT22;2532;52.480;13.354;2023-12-20T14:13:48;6.90;99.90
5027;DHT22;2532;52.480;13.354;2023-12-20T14:16:17;6.90;99.90
5027;DHT22;2532;52.480;13.354;2023-12-20T14:18:44;6.90;99.90
5027;DHT22;2532;52.480;13.354;2023-12-20T14:21:11;6.90;99.90
5027;DHT22;2532;52.480;13.354;2023-12-20T14:23:38;6.90;99.90
5027;DHT22;2532;52.480;13.354;2023-12-20T14:26:05;6.80;99.90
5027;DHT22;2532;52.480;13.354;2023-12-20T14:28:32;6.80;99.90
5027;DHT22;2532;52.480;13.354;2023-12-20T14:30:58;6.80;99.90
5027;DHT22;2532;52.480;13.354;2023-12-20T14:33:27;6.80;99.90
5027;DHT22;2532;52.480;13.354;2023-12-20T14:35:54;6.80;99.90
5027;DHT22;2532;52.480;13.354;2023-12-20T14:38:20;6.80;99.90
5027;DHT22;2532;52.480;13.354;2023-12-20T14:40:47;6.80;99.90
5027;DHT22;2532;52.480;13.354;2023-12-20T14:43:15;6.90;99.90
5027;DHT22;2532;52.480;13.354;2023-12-20T14:45:42;6.90;99.90
5027;DHT22;2532;52.480;13.354;2023-12-20T14:48:09;6.90;99.90
5027;DHT22;2532;52.480;13.354;2023-12-20T14:50:38;6.90;99.90
5027;DHT22;2532;52.480;13.354;2023-12-20T14:53:06;6.90;99.90
5027;DHT22;2532;52.480;13.354;2023-12-20T14:55:33;6.90;99.90
5027;DHT22;2532;52.480;13.354;2023-12-20T14:58:00;6.90;99.90
5027;DHT22;2532;52.480;13.354;2023-12-20T15:00:27;6.90;99.90
5027;DHT22;2532;52.480;13.354;2023-12-20T15:02:55;6.90;99.90
5027;DHT22;2532;52.480;13.354;2023-12-20T15:05:22;6.90;99.90
5027;DHT22;2532;52.480;13.354;2023-12-20T15:07:50;6.80;99.90
5027;DHT22;2532;52.480;13.354;2023-12-20T15:10:18;6.80;99.90
5027;DHT22;2532;52.480;13.354;2023-12-20T15:12:45;6.80;99.90
5027;DHT22;2532;52.480;13.354;2023-12-20T15:15:12;6.80;99.90
5027;DHT22;2532;52.480;13.354;2023-12-20T15:17:39;6.90;99.90
5027;DHT22;2532;52.480;13.354;2023-12-20T15:20:06;6.90;99.90
5027;DHT22;2532;52.480;13.354;2023-12-20T15:22:35;6.90;99.90
5027;DHT22;2532;52.480;13.354;2023-12-20T15:25:05;6.90;99.90
5027;DHT22;2532;52.480;13.354;2023-12-20T15:27:33;6.90;99.90
5027;DHT22;2532;52.480;13.354;2023-12-20T15:30:03;7.00;99.90
5027;DHT22;2532;52.480;13.354;2023-12-20T15:32:30;6.90;99.90
5027;DHT22;2532;52.480;13.354;2023-12-20T15:34:58;6.90;99.90
5027;DHT22;2532;52.480;13.354;2023-12-20T15:37:25;6.90;99.90
5027;DHT22;2532;52.480;13.354;2023-12-20T15:39:52;6.90;99.90
5027;DHT22;2532;52.480;13.354;2023-12-20T15:42:20;6.90;99.90
5027;DHT22;2532;52.480;13.354;2023-12-20T15:44:47;6.90;99.90
5027;DHT22;2532;52.480;13.354;2023-12-20T15:47:14;6.90;99.90
5027;DHT22;2532;52.480;13.354;2023-12-20T15:49:41;6.90;99.90
5027;DHT22;2532;52.480;13.354;2023-12-20T15:52:08;6.80;99.90
5027;DHT22;2532;52.480;13.354;2023-12-20T15:54:35;6.80;99.90
5027;DHT22;2532;52.480;13.354;2023-12-20T15:57:04;6.80;99.90
5027;DHT22;2532;52.480;13.354;2023-12-20T15:59:32;6.80;99.90
5027;DHT22;2532;52.480;13.354;2023-12-20T16:01:59;6.80;99.90
5027;DHT22;2532;52.480;13.354;2023-12-20T16:04:25;6.70;99.90
5027;DHT22;2532;52.480;13.354;2023-12-20T16:06:52;6.70;99.90